Time;durP1;ratioP1;P1;durP2;ratioP2;P2;SDS_P1;SDS_P2;PMS_P1;PMS_P2;Temp;Humidity;BMP_temperature;BMP_pressure;BME280_temperature;BME280_humidity;BME280_pressure;Samples;Min_cycle;Max_cycle;Signal;HPM_P1;HPM_P2
2022/04/03 00:00:48;;;;;;;1.27;1.27;;;;;;;1.12;100.00;100979.47;7396580;19;20466;-48
2022/04/03 00:03:14;;;;;;;2.78;2.58;;;;;;;1.13;100.00;100975.53;7397978;19;20011;-48
2022/04/03 00:05:43;;;;;;;2.15;2.05;;;;;;;1.15;100.00;100981.44;7397453;19;20015;-48
2022/04/03 00:08:10;;;;;;;2.85;1.88;;;;;;;1.19;100.00;100981.47;7390341;19;20027;-79
2022/04/03 00:10:37;;;;;;;1.73;1.63;;;;;;;1.17;100.00;100976.34;7390252;19;20018;-79
2022/04/03 00:13:03;;;;;;;3.92;3.17;;;;;;;1.07;100.00;100973.53;7387370;19;20018;-78
2022/04/03 00:15:30;;;;;;;1.55;1.50;;;;;;;1.02;100.00;100984.91;7388572;19;20758;-78
2022/04/03 00:17:57;;;;;;;2.45;2.00;;;;;;;1.02;100.00;100982.91;7392293;19;20010;-79
2022/04/03 00:20:23;;;;;;;7.78;2.45;;;;;;;1.02;100.00;100980.19;7394796;19;20350;-78
2022/04/03 00:22:50;;;;;;;1.50;1.50;;;;;;;1.02;100.00;100982.91;7394993;19;20013;-79
2022/04/03 00:25:19;;;;;;;3.35;2.47;;;;;;;0.99;100.00;100977.44;7393975;19;20027;-78
2022/04/03 00:27:45;;;;;;;8.52;3.58;;;;;;;0.93;100.00;100976.22;7393242;19;20014;-78
2022/04/03 00:30:12;;;;;;;2.72;2.15;;;;;;;0.93;100.00;100977.03;7393201;19;20022;-78
2022/04/03 00:32:40;;;;;;;1.50;1.50;;;;;;;0.92;100.00;100975.44;7402282;19;20050;-79
2022/04/03 00:35:07;;;;;;;2.50;1.92;;;;;;;0.91;100.00;100976.59;7401947;19;20014;-79
2022/04/03 00:37:34;;;;;;;1.65;1.52;;;;;;;0.78;100.00;100975.31;7401836;19;20022;-78
2022/04/03 00:40:01;;;;;;;7.07;2.78;;;;;;;0.74;100.00;100983.53;7404953;19;20034;-79
2022/04/03 00:42:28;;;;;;;5.15;2.60;;;;;;;0.82;100.00;100975.38;7405034;19;20147;-78
2022/04/03 00:44:55;;;;;;;2.65;2.42;;;;;;;0.85;100.00;100975.38;7404858;19;20014;-78
2022/04/03 00:47:21;;;;;;;2.88;2.78;;;;;;;0.84;100.00;100973.03;7394293;19;20081;-77
2022/04/03 00:49:47;;;;;;;1.65;1.65;;;;;;;0.88;100.00;100979.31;7395338;19;20026;-78
2022/04/03 00:52:13;;;;;;;5.45;2.25;;;;;;;0.75;100.00;100982.38;7393878;19;20007;-78
2022/04/03 00:54:39;;;;;;;2.45;2.35;;;;;;;0.72;100.00;100971.38;7396519;19;20018;-78
2022/04/03 00:57:07;;;;;;;2.08;1.98;;;;;;;0.68;100.00;100965.88;7391257;19;20353;-78
2022/04/03 00:59:37;;;;;;;4.53;3.35;;;;;;;0.70;100.00;100973.72;7392373;19;20018;-78
2022/04/03 01:02:03;;;;;;;1.77;1.67;;;;;;;0.66;100.00;100967.44;7394029;19;20038;-78
2022/04/03 01:04:29;;;;;;;3.28;2.65;;;;;;;0.62;100.00;100966.63;7395114;19;20107;-78
2022/04/03 01:06:57;;;;;;;6.40;2.90;;;;;;;0.46;100.00;100961.41;7394916;19;20026;-77
2022/04/03 01:09:23;;;;;;;1.83;1.83;;;;;;;0.44;100.00;100971.19;7393183;19;20042;-78
2022/04/03 01:11:50;;;;;;;2.60;2.50;;;;;;;0.45;100.00;100979.03;7392416;19;20011;-78
2022/04/03 01:14:36;;;;;;;2.42;2.08;;;;;;;0.42;100.00;100957.88;7393088;19;20044;-78
2022/04/03 01:17:04;;;;;;;2.95;2.38;;;;;;;0.39;100.00;100968.81;7394190;19;20017;-78
2022/04/03 01:19:31;;;;;;;5.03;3.13;;;;;;;0.44;100.00;100971.19;7399373;19;20018;-78
2022/04/03 01:21:58;;;;;;;4.20;2.22;;;;;;;0.43;100.00;100958.66;7396072;19;20067;-78
2022/04/03 01:24:25;;;;;;;3.33;1.58;;;;;;;0.43;100.00;100955.91;7395763;19;20010;-78
2022/04/03 01:26:52;;;;;;;2.20;2.10;;;;;;;0.36;100.00;100961.34;7394595;19;20014;-79
2022/04/03 01:29:20;;;;;;;1.70;1.67;;;;;;;0.36;100.00;100964.06;7392990;19;20634;-78
2022/04/03 01:31:46;;;;;;;2.90;2.38;;;;;;;0.40;100.00;100960.19;7390861;19;20022;-78
2022/04/03 01:34:14;;;;;;;1.52;1.52;;;;;;;0.36;100.00;100962.13;7389909;19;20070;-78
2022/04/03 01:36:40;;;;;;;2.33;2.17;;;;;;;0.34;100.00;100960.94;7385616;19;20029;-77
2022/04/03 01:39:07;;;;;;;5.65;2.67;;;;;;;0.31;100.00;100962.47;7387750;19;20038;-78
2022/04/03 01:41:33;;;;;;;3.70;1.90;;;;;;;0.26;100.00;100964.78;7390144;19;20017;-78
2022/04/03 01:43:59;;;;;;;2.00;2.00;;;;;;;0.23;100.00;100960.06;7390367;19;20022;-78
2022/04/03 01:46:26;;;;;;;4.00;1.85;;;;;;;0.21;100.00;100963.19;7390211;19;20057;-78
2022/04/03 01:48:52;;;;;;;1.75;1.75;;;;;;;0.22;100.00;100963.97;7391954;19;20018;-79
2022/04/03 01:51:19;;;;;;;2.08;1.98;;;;;;;0.18;100.00;100960.38;7393565;19;20048;-76
2022/04/03 01:53:45;;;;;;;9.63;2.33;;;;;;;0.15;100.00;100966.66;7391738;19;20018;-80
2022/04/03 01:56:12;;;;;;;2.10;1.95;;;;;;;0.09;100.00;100960.72;7392959;19;20014;-81
2022/04/03 01:58:39;;;;;;;1.92;1.85;;;;;;;0.05;100.00;100964.56;7392407;19;20019;-81
2022/04/03 02:01:05;;;;;;;2.38;2.38;;;;;;;0.02;100.00;100954.41;7396668;19;20027;-81
2022/04/03 02:03:31;;;;;;;1.55;1.55;;;;;;;0.04;100.00;100958.34;7396369;19;20022;-81
2022/04/03 02:05:58;;;;;;;5.25;3.55;;;;;;;0.05;100.00;100956.38;7392637;19;20030;-81
2022/04/03 02:08:25;;;;;;;2.17;2.10;;;;;;;0.01;100.00;100956.34;7389326;19;20508;-81
2022/04/03 02:10:52;;;;;;;24.73;3.55;;;;;;;0.06;100.00;100955.22;7392379;19;20071;-81
2022/04/03 02:13:18;;;;;;;2.67;2.50;;;;;;;0.03;100.00;100939.53;7394482;19;20021;-82
2022/04/03 02:15:45;;;;;;;2.40;2.20;;;;;;;0.04;100.00;100939.16;7394358;19;20105;-82
2022/04/03 02:18:12;;;;;;;2.92;1.98;;;;;;;0.04;100.00;100949.31;7388399;19;20296;-81
2022/04/03 02:20:38;;;;;;;1.85;1.85;;;;;;;0.03;100.00;100950.47;7387513;19;20014;-80
2022/04/03 02:23:05;;;;;;;1.63;1.63;;;;;;;-0.02;100.00;100944.19;7392398;19;20416;-80
2022/04/03 02:25:32;;;;;;;2.30;2.25;;;;;;;-0.01;100.00;100944.97;7385515;19;20018;-80
2022/04/03 02:27:59;;;;;;;13.93;3.40;;;;;;;-0.07;100.00;100952.75;7386166;19;20350;-80
2022/04/03 02:30:26;;;;;;;2.47;2.17;;;;;;;-0.10;100.00;100948.03;7386626;19;20083;-80
2022/04/03 02:32:52;;;;;;;1.58;1.58;;;;;;;-0.08;100.00;100945.69;7391235;19;20015;-79
2022/04/03 02:35:18;;;;;;;1.75;1.75;;;;;;;-0.07;100.00;100941.81;7388123;19;20103;-80
2022/04/03 02:37:45;;;;;;;2.40;2.30;;;;;;;-0.14;100.00;100944.47;7385340;19;20026;-79
2022/04/03 02:40:14;;;;;;;2.05;1.90;;;;;;;-0.18;100.00;100946.41;7387432;19;20425;-80
2022/04/03 02:42:41;;;;;;;4.38;3.35;;;;;;;-0.19;100.00;100944.81;7390003;19;20043;-79
2022/04/03 02:45:12;;;;;;;2.88;2.55;;;;;;;-0.22;100.00;100940.06;7387852;19;20023;-79
2022/04/03 02:47:38;;;;;;;2.00;2.00;;;;;;;-0.24;100.00;100936.94;7387384;19;20007;-80
2022/04/03 02:50:09;;;;;;;3.40;2.25;;;;;;;-0.22;100.00;100933.84;7391844;19;20022;-79
2022/04/03 02:52:37;;;;;;;2.80;2.53;;;;;;;-0.27;100.00;100937.69;7395806;19;20349;-80
2022/04/03 02:55:06;;;;;;;2.60;1.90;;;;;;;-0.27;100.00;100932.22;7391433;19;20027;-80
2022/04/03 02:57:33;;;;;;;1.00;1.00;;;;;;;-0.27;100.00;100937.69;7391843;19;20078;-80
2022/04/03 02:59:59;;;;;;;3.15;3.00;;;;;;;-0.26;100.00;100933.03;7393130;19;20038;-80
2022/04/03 03:02:25;;;;;;;1.85;1.83;;;;;;;-0.31;100.00;100942.34;7390662;19;20024;-81
2022/04/03 03:04:51;;;;;;;2.33;2.13;;;;;;;-0.30;100.00;100932.19;7386224;19;20010;-81
2022/04/03 03:07:18;;;;;;;2.50;2.05;;;;;;;-0.25;100.00;100935.38;7388673;19;20034;-89
2022/04/03 03:09:44;;;;;;;3.10;2.28;;;;;;;-0.22;100.00;100923.66;7397056;19;20007;-91
2022/04/03 03:12:10;;;;;;;8.90;2.50;;;;;;;-0.17;100.00;100937.00;7395950;19;20010;-89
2022/04/03 03:14:36;;;;;;;2.28;2.17;;;;;;;-0.18;100.00;100935.44;7392299;19;20024;-88
2022/04/03 03:17:03;;;;;;;4.57;2.70;;;;;;;-0.11;100.00;100934.72;7395494;19;20034;-89
2022/04/03 03:19:29;;;;;;;10.10;2.35;;;;;;;-0.10;100.00;100933.56;7398391;19;20560;-87
2022/04/03 03:21:55;;;;;;;4.47;1.77;;;;;;;-0.11;100.00;100930.03;7397015;19;20032;-89
2022/04/03 03:24:22;;;;;;;1.52;1.52;;;;;;;-0.07;100.00;100936.34;7395094;19;20011;-87
2022/04/03 03:26:48;;;;;;;2.22;2.03;;;;;;;-0.07;100.00;100935.53;7394269;19;20070;-89
2022/04/03 03:29:15;;;;;;;2.33;2.25;;;;;;;-0.10;100.00;100931.59;7395787;19;20039;-89
2022/04/03 03:31:41;;;;;;;1.58;1.52;;;;;;;-0.10;100.00;100937.09;7395875;19;20010;-88
2022/04/03 03:34:08;;;;;;;2.33;2.22;;;;;;;-0.12;100.00;100939.41;7393903;19;20010;-89
2022/04/03 03:36:34;;;;;;;1.90;1.50;;;;;;;-0.21;100.00;100935.41;7400281;19;20011;-90
2022/04/03 03:39:01;;;;;;;3.25;3.08;;;;;;;-0.23;100.00;100943.19;7394568;19;20012;-88
2022/04/03 03:41:27;;;;;;;1.90;1.90;;;;;;;-0.23;100.00;100932.25;7396373;19;20010;-85
2022/04/03 03:43:53;;;;;;;3.53;3.25;;;;;;;-0.25;100.00;100935.38;7393305;19;20012;-88
2022/04/03 03:46:19;;;;;;;6.43;1.75;;;;;;;-0.24;100.00;100936.94;7394958;19;20014;-88
2022/04/03 03:48:45;;;;;;;1.88;1.85;;;;;;;-0.24;100.00;100931.47;7396620;19;20103;-90
2022/04/03 03:51:11;;;;;;;2.13;2.03;;;;;;;-0.26;100.00;100931.06;7395057;19;20002;-89
2022/04/03 03:53:37;;;;;;;2.00;1.90;;;;;;;-0.28;100.00;100925.16;7395935;19;20013;-89
2022/04/03 03:56:04;;;;;;;4.78;2.63;;;;;;;-0.26;100.00;100925.56;7394174;19;20015;-90
2022/04/03 03:58:30;;;;;;;3.75;2.47;;;;;;;-0.24;100.00;100923.25;7394594;19;20335;-91
2022/04/03 04:00:57;;;;;;;1.67;1.67;;;;;;;-0.26;100.00;100928.31;7392567;19;20508;-90
2022/04/03 04:03:23;;;;;;;2.35;2.25;;;;;;;-0.21;100.00;100925.25;7395338;19;20034;-90
2022/04/03 04:05:49;;;;;;;16.20;2.95;;;;;;;-0.13;100.00;100926.88;7397062;19;20018;-90
2022/04/03 04:08:15;;;;;;;1.60;1.60;;;;;;;-0.09;100.00;100922.22;7387376;19;20066;-80
2022/04/03 04:10:41;;;;;;;1.67;1.67;;;;;;;-0.06;100.00;100920.69;7388434;19;20018;-77
2022/04/03 04:13:07;;;;;;;2.55;2.35;;;;;;;-0.11;100.00;100918.31;7386536;19;20017;-78
2022/04/03 04:15:33;;;;;;;2.58;2.47;;;;;;;-0.15;100.00;100911.97;7387077;19;20010;-78
2022/04/03 04:18:00;;;;;;;2.67;2.53;;;;;;;-0.13;100.00;100921.41;7382437;19;20034;-78
2022/04/03 04:20:27;;;;;;;2.17;1.98;;;;;;;-0.13;100.00;100926.88;7382183;19;20481;-77
2022/04/03 04:22:53;;;;;;;1.40;1.40;;;;;;;-0.13;100.00;100921.41;7388042;19;20022;-78
2022/04/03 04:25:19;;;;;;;2.40;2.25;;;;;;;-0.10;100.00;100915.19;7385023;19;20473;-78
2022/04/03 04:27:46;;;;;;;3.67;1.85;;;;;;;-0.10;100.00;100922.59;7386478;19;20035;-78
2022/04/03 04:30:14;;;;;;;1.85;1.73;;;;;;;-0.08;100.00;100923.00;7383336;19;20019;-78
2022/04/03 04:32:41;;;;;;;2.97;2.30;;;;;;;0.00;100.00;100925.44;7392125;19;20019;-78
2022/04/03 04:35:08;;;;;;;3.92;2.53;;;;;;;0.08;100.00;100920.03;7396003;19;20015;-78
2022/04/03 04:37:34;;;;;;;2.72;2.53;;;;;;;0.13;100.00;100914.19;7394014;19;20022;-78
2022/04/03 04:40:01;;;;;;;1.45;1.45;;;;;;;0.16;100.00;100921.66;7395833;19;20020;-78
2022/04/03 04:42:28;;;;;;;1.70;1.70;;;;;;;0.21;100.00;100919.34;7399166;19;20026;-78
2022/04/03 04:44:54;;;;;;;1.50;1.50;;;;;;;0.24;100.00;100912.34;7395822;19;20338;-78
2022/04/03 04:47:21;;;;;;;3.72;2.63;;;;;;;0.27;100.00;100911.56;7397360;19;20034;-78
2022/04/03 04:49:47;;;;;;;1.75;1.75;;;;;;;0.30;100.00;100916.28;7399328;19;20022;-78
2022/04/03 04:52:13;;;;;;;2.17;1.85;;;;;;;0.33;100.00;100910.03;7398278;19;20019;-79
2022/04/03 04:54:40;;;;;;;3.25;2.90;;;;;;;0.33;100.00;100901.81;7396122;19;20018;-78
2022/04/03 04:57:06;;;;;;;3.13;2.67;;;;;;;0.29;100.00;100899.06;7397155;19;20477;-79
2022/04/03 04:59:32;;;;;;;2.13;2.03;;;;;;;0.37;100.00;100902.66;7396221;19;20022;-78
2022/04/03 05:01:59;;;;;;;4.28;2.35;;;;;;;0.44;100.00;100908.94;7397493;19;20026;-80
2022/04/03 05:04:26;;;;;;;3.70;2.28;;;;;;;0.49;100.00;100913.28;7393408;19;20010;-79
2022/04/03 05:06:53;;;;;;;2.58;2.15;;;;;;;0.51;100.00;100916.44;7391651;19;20108;-78
2022/04/03 05:09:20;;;;;;;3.05;2.83;;;;;;;0.51;100.00;100919.19;7390132;19;20093;-81
2022/04/03 05:11:47;;;;;;;2.03;1.98;;;;;;;0.54;100.00;100916.44;7393116;19;20029;-79
2022/04/03 05:14:13;;;;;;;1.77;1.67;;;;;;;0.58;100.00;100914.53;7390077;19;20022;-79
2022/04/03 05:16:40;;;;;;;1.52;1.45;;;;;;;0.64;100.00;100914.94;7391379;19;20121;-79
2022/04/03 05:19:11;;;;;;;5.25;1.77;;;;;;;0.70;100.00;100918.91;7390988;19;20010;-79
2022/04/03 05:21:37;;;;;;;4.63;2.03;;;;;;;0.75;100.00;100916.59;7389804;19;20018;-79
2022/04/03 05:24:03;;;;;;;1.48;1.48;;;;;;;0.82;100.00;100915.84;7390253;19;20709;-79
2022/04/03 05:26:29;;;;;;;3.00;2.78;;;;;;;0.92;100.00;100909.63;7390672;19;20430;-79
2022/04/03 05:28:55;;;;;;;1.92;1.85;;;;;;;0.96;100.00;100904.94;7387476;19;20512;-79
2022/04/03 05:31:22;;;;;;;2.40;2.30;;;;;;;1.03;100.00;100910.47;7390890;19;20034;-79
2022/04/03 05:33:48;;;;;;;2.38;2.30;;;;;;;1.02;100.00;100903.38;7392889;19;20022;-79
2022/04/03 05:36:15;;;;;;;1.95;1.90;;;;;;;1.11;100.00;100917.53;7395030;19;20481;-79
2022/04/03 05:41:21;;;;;;;1.63;1.63;;;;;;;0.87;100.00;100915.47;7424555;19;20424;-80
2022/04/03 05:43:47;;;;;;;1.50;1.50;;;;;;;1.03;100.00;100909.66;7424111;19;20086;-81
2022/04/03 05:46:13;;;;;;;1.63;1.63;;;;;;;1.16;100.00;100914.44;7423035;19;20029;-81
2022/04/03 05:48:39;;;;;;;3.72;2.83;;;;;;;1.24;100.00;100907.78;7418907;19;20186;-81
2022/04/03 05:51:05;;;;;;;2.53;2.33;;;;;;;1.31;100.00;100902.34;7421464;19;20014;-81
2022/04/03 05:53:32;;;;;;;1.85;1.85;;;;;;;1.30;100.00;100908.97;7423907;19;20055;-82
2022/04/03 05:55:58;;;;;;;2.47;1.88;;;;;;;1.34;100.00;100909.78;7421482;19;20473;-79
2022/04/03 05:58:24;;;;;;;4.28;2.33;;;;;;;1.40;100.00;100902.75;7422594;19;20018;-81
2022/04/03 06:00:50;;;;;;;1.45;1.45;;;;;;;1.41;100.00;100903.53;7420637;19;20029;-80
2022/04/03 06:03:16;;;;;;;1.70;1.60;;;;;;;1.40;100.00;100897.28;7422313;19;20015;-80
2022/04/03 06:05:43;;;;;;;2.25;1.63;;;;;;;1.47;100.00;100908.25;7424501;19;20018;-80
2022/04/03 06:08:09;;;;;;;1.75;1.67;;;;;;;1.51;100.00;100903.56;7423001;19;20014;-82
2022/04/03 06:10:35;;;;;;;1.60;1.60;;;;;;;1.49;100.00;100911.38;7424405;19;20809;-80
2022/04/03 06:13:07;;;;;;;1.25;1.25;;;;;;;1.51;100.00;100898.09;7427751;19;20014;-80
2022/04/03 06:15:36;;;;;;;6.20;3.15;;;;;;;1.52;100.00;100905.13;7427772;19;20442;-80
2022/04/03 06:18:07;;;;;;;3.03;2.83;;;;;;;1.68;100.00;100906.72;7425438;19;20101;-80
2022/04/03 06:20:34;;;;;;;1.80;1.70;;;;;;;1.74;100.00;100900.47;7425619;19;20021;-81
2022/04/03 06:23:02;;;;;;;3.83;2.08;;;;;;;1.80;100.00;100898.91;7426975;19;20010;-81
2022/04/03 06:25:29;;;;;;;1.60;1.60;;;;;;;1.85;100.00;100897.72;7427494;19;20026;-80
2022/04/03 06:27:56;;;;;;;8.90;3.15;;;;;;;1.93;100.00;100891.06;7425516;19;20480;-81
2022/04/03 06:30:23;;;;;;;6.53;2.67;;;;;;;1.91;100.00;100894.19;7427147;19;20015;-80
2022/04/03 06:32:49;;;;;;;7.18;2.85;;;;;;;1.98;100.00;100893.41;7425750;19;20382;-81
2022/04/03 06:35:16;;;;;;;1.20;1.20;;;;;;;2.05;100.00;100898.94;7427640;19;20026;-80
2022/04/03 06:37:42;;;;;;;5.88;2.60;;;;;;;2.08;100.00;100898.16;7424824;19;20500;-80
2022/04/03 06:40:09;;;;;;;2.30;2.00;;;;;;;2.15;100.00;100903.63;7424462;19;20014;-81
2022/04/03 06:42:36;;;;;;;1.55;1.55;;;;;;;2.16;100.00;100905.22;7428485;19;20787;-82
2022/04/03 06:45:03;;;;;;;2.70;2.28;;;;;;;2.21;100.00;100915.78;7428975;19;20026;-82
2022/04/03 06:47:31;;;;;;;2.03;1.80;;;;;;;2.25;100.00;100906.38;7423502;19;20022;-82
2022/04/03 06:49:58;;;;;;;2.22;2.03;;;;;;;2.29;100.00;100903.63;7424581;19;20177;-82
2022/04/03 06:52:24;;;;;;;7.07;3.13;;;;;;;2.39;100.00;100913.03;7403585;19;20414;-82
2022/04/03 06:54:50;;;;;;;3.53;3.22;;;;;;;2.44;100.00;100916.19;7398871;19;20014;-82
2022/04/03 06:57:18;;;;;;;6.60;4.45;;;;;;;2.49;100.00;100906.75;7397867;19;20018;-82
2022/04/03 06:59:45;;;;;;;6.13;3.38;;;;;;;2.54;100.00;100900.84;7394499;19;20022;-82
2022/04/03 07:02:11;;;;;;;29.42;5.72;;;;;;;2.64;100.00;100908.28;7398964;19;20050;-82
2022/04/03 07:04:37;;;;;;;9.85;4.68;;;;;;;2.68;100.00;100909.06;7391365;19;20692;-81
2022/04/03 07:07:04;;;;;;;6.63;3.35;;;;;;;2.75;100.00;100915.31;7393671;19;20027;-85
2022/04/03 07:09:30;;;;;;;12.10;4.32;;;;;;;2.79;100.00;100921.63;7395995;19;20029;-84
2022/04/03 07:11:57;;;;;;;3.00;2.65;;;;;;;2.81;100.00;100924.75;7396038;19;20022;-82
2022/04/03 07:14:23;;;;;;;7.65;4.07;;;;;;;2.87;100.00;100925.91;7390679;19;20010;-82
2022/04/03 07:16:49;;;;;;;8.05;5.03;;;;;;;2.88;100.00;100913.72;7390185;19;20038;-83
2022/04/03 07:19:16;;;;;;;10.57;3.35;;;;;;;2.96;100.00;100920.78;7388310;19;20038;-82
2022/04/03 07:21:42;;;;;;;2.97;2.78;;;;;;;3.00;100.00;100916.06;7393602;19;20046;-82
2022/04/03 07:24:08;;;;;;;14.23;6.07;;;;;;;3.05;100.00;100918.38;7392036;19;20018;-83
2022/04/03 07:26:34;;;;;;;8.40;2.78;;;;;;;3.10;100.00;100911.69;7394930;19;20018;-83
2022/04/03 07:29:00;;;;;;;16.08;5.95;;;;;;;3.16;100.00;100907.34;7390258;19;20015;-83
2022/04/03 07:31:28;;;;;;;5.80;3.05;;;;;;;3.23;100.00;100903.78;7392163;19;20026;-83
2022/04/03 07:33:55;;;;;;;3.22;2.78;;;;;;;3.29;100.00;100910.44;7392282;19;20352;-83
2022/04/03 07:36:21;;;;;;;6.63;2.45;;;;;;;3.35;100.00;100906.06;7391811;19;20014;-83
2022/04/03 07:38:47;;;;;;;5.95;2.20;;;;;;;3.38;100.00;100908.81;7388166;19;20025;-82
2022/04/03 07:41:14;;;;;;;2.47;2.10;;;;;;;3.37;100.00;100911.97;7389600;19;20476;-83
2022/04/03 07:43:40;;;;;;;3.13;2.03;;;;;;;3.38;100.00;100916.31;7391327;19;20023;-83
2022/04/03 07:46:07;;;;;;;7.60;3.22;;;;;;;3.40;100.00;100911.19;7391356;19;20090;-82
2022/04/03 07:48:33;;;;;;;2.05;1.95;;;;;;;3.42;100.00;100903.28;7392234;19;20105;-83
2022/04/03 07:50:59;;;;;;;11.10;4.65;;;;;;;3.41;100.00;100913.53;7393378;19;20038;-83
2022/04/03 07:53:25;;;;;;;3.65;1.67;;;;;;;3.47;100.00;100916.63;7389850;19;20011;-82
2022/04/03 07:55:51;;;;;;;4.00;3.38;;;;;;;3.56;100.00;100925.22;7388974;19;20059;-83
2022/04/03 07:58:17;;;;;;;8.55;3.50;;;;;;;3.62;100.00;100916.16;7385531;19;20031;-82
2022/04/03 08:00:45;;;;;;;4.25;3.17;;;;;;;3.65;100.00;100914.56;7388664;19;20010;-83
2022/04/03 08:03:11;;;;;;;8.02;2.75;;;;;;;3.77;100.00;100920.38;7392703;19;20082;-83
2022/04/03 08:05:37;;;;;;;4.80;3.33;;;;;;;3.95;100.00;100911.22;7390012;19;20102;-83
2022/04/03 08:08:03;;;;;;;7.32;3.15;;;;;;;4.09;100.00;100920.19;7390026;19;20055;-83
2022/04/03 08:10:30;;;;;;;3.45;1.42;;;;;;;4.21;100.00;100916.91;7390898;19;20017;-83
2022/04/03 08:12:56;;;;;;;3.35;1.55;;;;;;;4.39;100.00;100914.81;7395863;19;20018;-83
2022/04/03 08:15:22;;;;;;;5.18;2.90;;;;;;;4.57;100.00;100907.13;7390776;19;20014;-83
2022/04/03 08:17:48;;;;;;;1.77;1.65;;;;;;;4.71;100.00;100910.94;7389738;19;20018;-83
2022/04/03 08:20:17;;;;;;;3.35;3.10;;;;;;;4.96;100.00;100911.47;7391426;19;20018;-83
2022/04/03 08:22:45;;;;;;;3.58;2.45;;;;;;;5.23;100.00;100904.03;7392004;19;20088;-82
2022/04/03 08:25:18;;;;;;;4.72;2.95;;;;;;;5.58;100.00;100911.06;7391045;19;20007;-83
2022/04/03 08:27:48;;;;;;;2.83;1.52;;;;;;;5.82;100.00;100896.91;7391561;19;20484;-84
2022/04/03 08:30:23;;;;;;;14.67;2.53;;;;;;;6.06;100.00;100901.28;7386935;19;20041;-83
2022/04/03 08:32:50;;;;;;;21.25;5.95;;;;;;;6.18;100.00;100901.88;7392594;19;20015;-83
2022/04/03 08:35:17;;;;;;;15.88;4.57;;;;;;;6.30;100.00;100901.31;7390557;19;20465;-83
2022/04/03 08:37:44;;;;;;;6.68;3.35;;;;;;;6.37;100.00;100903.94;7389091;19;20780;-83
2022/04/03 08:40:12;;;;;;;10.90;5.13;;;;;;;6.51;100.00;100898.94;7388397;19;20099;-84
2022/04/03 08:42:40;;;;;;;7.07;2.97;;;;;;;6.67;100.00;100901.81;7392892;19;20026;-83
2022/04/03 08:45:11;;;;;;;5.82;2.63;;;;;;;6.78;100.00;100896.06;7391669;19;20528;-84
2022/04/03 08:47:44;;;;;;;5.85;2.30;;;;;;;6.85;100.00;100890.41;7393352;19;20074;-83
2022/04/03 08:50:12;;;;;;;3.63;3.33;;;;;;;7.02;100.00;100903.13;7386253;19;20481;-84
2022/04/03 08:52:43;;;;;;;4.47;3.05;;;;;;;7.14;100.00;100894.19;7393252;19;20037;-84
2022/04/03 08:55:09;;;;;;;4.45;3.03;;;;;;;7.29;100.00;100898.22;7389317;19;20010;-83
2022/04/03 08:57:35;;;;;;;8.55;3.25;;;;;;;7.55;100.00;100900.03;7387932;19;20015;-84
2022/04/03 09:00:03;;;;;;;4.75;2.33;;;;;;;7.88;100.00;100902.88;7392543;19;20011;-85
2022/04/03 09:02:29;;;;;;;3.30;2.83;;;;;;;8.14;100.00;100904.63;7396589;19;20378;-89
2022/04/03 09:04:56;;;;;;;4.93;2.58;;;;;;;8.28;100.00;100895.97;7399586;19;20345;-86
2022/04/03 09:07:22;;;;;;;18.95;4.35;;;;;;;8.39;100.00;100891.72;7389632;19;20007;-83
2022/04/03 09:10:05;;;;;;;9.90;2.95;;;;;;;8.43;100.00;100897.16;7390983;19;20100;-89
2022/04/03 09:12:31;;;;;;;7.35;3.08;;;;;;;8.35;100.00;100896.56;7394099;19;20027;-87
2022/04/03 09:14:58;;;;;;;4.75;2.97;;;;;;;8.32;100.00;100891.09;7395489;19;20086;-87
2022/04/03 09:17:34;;;;;;;3.03;2.42;;;;;;;8.28;100.00;100901.50;7393640;19;20021;-87
2022/04/03 09:20:06;;;;;;;5.35;2.50;;;;;;;8.18;100.00;100902.53;7387097;19;20357;-85
2022/04/03 09:22:35;;;;;;;2.22;1.95;;;;;;;8.09;100.00;100894.03;7393843;19;20018;-84
2022/04/03 09:25:04;;;;;;;8.05;2.95;;;;;;;8.09;100.00;100889.28;7390019;19;20676;-85
2022/04/03 09:27:34;;;;;;;9.23;2.40;;;;;;;8.21;100.00;100891.34;7389390;19;20035;-84
2022/04/03 09:30:07;;;;;;;7.57;3.23;;;;;;;8.28;100.00;100887.63;7392490;19;20019;-85
2022/04/03 09:32:34;;;;;;;7.32;2.53;;;;;;;8.31;100.00;100882.00;7392360;19;20676;-84
2022/04/03 09:35:01;;;;;;;4.03;2.42;;;;;;;8.31;100.00;100893.13;7393509;19;20014;-85
2022/04/03 09:37:27;;;;;;;3.30;1.95;;;;;;;8.43;100.00;100886.06;7389997;19;20022;-84
2022/04/03 09:39:54;;;;;;;2.70;2.35;;;;;;;8.79;100.00;100874.81;7393431;19;20027;-83
2022/04/03 09:42:22;;;;;;;3.45;1.38;;;;;;;9.05;100.00;100871.66;7394768;19;20783;-83
2022/04/03 09:44:51;;;;;;;5.05;2.65;;;;;;;9.53;100.00;100872.66;7394820;19;20563;-84
2022/04/03 09:47:20;;;;;;;1.58;1.52;;;;;;;10.25;100.00;100862.38;7394405;19;20022;-84
2022/04/03 09:49:50;;;;;;;4.18;1.90;;;;;;;10.65;100.00;100857.78;7392723;19;20018;-85
2022/04/03 09:52:33;;;;;;;3.60;2.55;;;;;;;10.75;100.00;100855.09;7392813;19;20023;-82
2022/04/03 09:55:00;;;;;;;2.30;1.85;;;;;;;10.69;100.00;100852.13;7385422;19;20052;-83
2022/04/03 09:57:27;;;;;;;2.15;1.80;;;;;;;10.59;100.00;100854.03;7388085;19;20023;-83
2022/04/03 09:59:55;;;;;;;3.45;1.65;;;;;;;10.53;100.00;100866.97;7389921;19;20029;-83
2022/04/03 10:02:23;;;;;;;3.30;1.83;;;;;;;10.54;100.00;100851.06;7394156;19;20041;-84
2022/04/03 10:04:53;;;;;;;2.60;2.38;;;;;;;10.82;100.00;100849.25;7391948;19;20037;-84
2022/04/03 10:22:55;;;;;;;0.90;0.90;;;;;;;11.18;100.00;100835.56;7393158;19;20014;-49
2022/04/03 10:29:15;;;;;;;4.53;1.00;;;;;;;11.06;100.00;100833.66;7402798;19;20021;-49
2022/04/03 10:31:58;;;;;;;1.77;1.50;;;;;;;10.93;100.00;100832.94;7399652;19;20470;-49
2022/04/03 10:34:28;;;;;;;0.80;0.80;;;;;;;10.85;100.00;100831.66;7399048;19;20018;-49
2022/04/03 10:37:30;;;;;;;4.65;1.75;;;;;;;11.08;100.00;100822.81;7396915;19;20006;-49
2022/04/03 10:40:36;;;;;;;5.43;2.75;;;;;;;11.72;100.00;100816.31;7397963;19;20304;-49
2022/04/03 10:46:20;;;;;;;2.00;1.27;;;;;;;11.92;100.00;100813.13;7396730;19;20086;-48
2022/04/03 10:49:17;;;;;;;3.80;1.42;;;;;;;11.98;100.00;100812.06;7393880;19;20063;-49
2022/04/03 10:52:33;;;;;;;2.15;1.83;;;;;;;12.15;100.00;100807.75;7396245;19;20017;-49
2022/04/03 10:58:52;;;;;;;1.38;1.25;;;;;;;12.42;100.00;100789.47;7393932;19;20011;-49
2022/04/03 11:01:23;;;;;;;;;;;;;;;12.37;100.00;100793.66;7399443;19;20363;-48
2022/04/03 11:04:13;;;;;;;1.55;1.23;;;;;;;12.28;100.00;100792.88;7394017;19;19933;-49
2022/04/03 11:10:06;;;;;;;2.15;1.20;;;;;;;11.74;100.00;100782.38;7403805;19;20073;-49
2022/04/03 11:20:00;;;;;;;1.73;1.63;;;;;;;12.30;100.00;100766.03;7393327;19;20796;-48
2022/04/03 11:22:31;;;;;;;4.60;2.42;;;;;;;12.02;100.00;100762.44;7394452;19;20015;-49
2022/04/03 11:25:04;;;;;;;3.53;1.27;;;;;;;11.67;100.00;100763.94;7391014;19;20017;-48
2022/04/03 11:31:00;;;;;;;1.65;1.45;;;;;;;11.10;100.00;100768.16;7395324;19;20254;-48
2022/04/03 11:33:29;;;;;;;1.63;1.52;;;;;;;10.85;100.00;100764.78;7391288;19;20007;-48
2022/04/03 11:36:06;;;;;;;1.33;1.23;;;;;;;10.70;100.00;100774.91;7391726;19;20347;-48
2022/04/03 11:46:02;;;;;;;9.50;2.70;;;;;;;10.17;100.00;100760.09;7392959;19;20038;-52
2022/04/03 11:48:52;;;;;;;1.52;1.42;;;;;;;10.13;100.00;100763.00;7388444;19;20236;-52
2022/04/03 11:55:00;;;;;;;2.08;1.98;;;;;;;10.34;100.00;100753.09;7391965;19;20491;-55
2022/04/03 12:00:59;;;;;;;2.22;1.13;;;;;;;10.70;100.00;100747.03;7390829;19;20007;-55
2022/04/03 12:03:30;;;;;;;2.00;1.23;;;;;;;10.98;100.00;100752.28;7396059;19;20017;-55
2022/04/03 12:06:32;;;;;;;3.08;1.52;;;;;;;11.25;100.00;100743.28;7394323;19;20031;-55
2022/04/03 12:09:38;;;;;;;5.85;1.90;;;;;;;11.59;100.00;100731.94;7392102;19;20013;-55
2022/04/03 12:12:29;;;;;;;1.70;1.50;;;;;;;11.83;100.00;100738.53;7397135;19;20477;-55
2022/04/03 12:15:23;;;;;;;1.95;0.95;;;;;;;12.11;100.00;100742.91;7391652;19;20019;-55
2022/04/03 12:21:28;;;;;;;7.35;1.38;;;;;;;12.43;100.00;100729.56;7387768;19;20017;-55
2022/04/03 12:27:50;;;;;;;2.65;0.98;;;;;;;12.85;100.00;100716.44;7392504;19;20585;-55
2022/04/03 12:30:32;;;;;;;23.98;1.20;;;;;;;12.80;99.58;100708.69;7394788;19;20011;-55
2022/04/03 12:33:13;;;;;;;2.28;0.70;;;;;;;12.61;95.75;100719.13;7392791;19;20790;-55